Date,TemperatureHighF,TemperatureAvgF,TemperatureLowF,DewpointHighF,DewpointAvgF,DewpointLowF,HumidityHigh,HumidityAvg,HumidityLow,PressureMaxIn,PressureMinIn,WindSpeedMaxMPH,WindSpeedAvgMPH,GustSpeedMaxMPH,PrecipitationSumIn
2013-1-1,64,55,47,-100,-100,-100,0,0,100,0.00,40.00,0,-999,0,0.00
2013-1-2,43,38,33,-100,-100,-100,0,0,100,0.00,40.00,0,-999,0,0.00
2013-1-3,48,40,34,-100,-100,-100,0,0,100,0.00,40.00,0,-999,0,0.00
2013-1-4,47,43,40,-100,-100,-100,0,0,100,0.00,40.00,0,-999,0,0.00
2013-1-5,50,44,40,-100,-100,-100,0,0,100,0.00,40.00,0,-999,0,0.00
2013-1-6,67,42,29,-100,-100,-100,0,0,100,0.00,40.00,0,-999,0,0.00
2013-1-7,68,42,24,-100,-100,-100,0,0,100,0.00,40.00,0,-999,0,0.00
2013-1-8,66,57,49,-100,-100,-100,0,0,100,0.00,40.00,0,-999,0,0.00
2013-1-9,69,61,53,-100,-100,-100,0,0,100,0.00,40.00,0,-999,0,0.00
2013-1-10,78,58,49,-100,-100,-100,0,0,100,0.00,40.00,0,-999,0,0.00
2013-1-11,73,61,40,-100,-100,-100,0,0,100,0.00,40.00,0,-999,0,0.00
2013-1-12,79,75,56,-100,-100,-100,0,0,100,0.00,40.00,0,-999,0,0.00
2013-1-13,60,47,39,-100,-100,-100,0,0,100,0.00,40.00,0,-999,0,0.00
2013-1-14,50,42,33,-100,-100,-100,0,0,100,0.00,40.00,0,-999,0,0.00
2013-1-15,42,35,33,-100,-100,-100,0,0,100,0.00,40.00,0,-999,0,0.00
2013-1-16,64,45,28,-100,-100,-100,0,0,100,0.00,40.00,0,-999,0,0.00
2013-1-17,79,42,21,-100,-100,-100,0,0,100,0.00,40.00,0,-999,0,0.00
2013-1-18,77,47,27,-100,-100,-100,0,0,100,0.00,40.00,0,-999,0,0.00
2013-1-19,76,50,32,-100,-100,-100,0,0,100,0.00,40.00,0,-999,0,0.00
2013-1-20,81,54,40,-100,-100,-100,0,0,100,0.00,40.00,0,-999,0,0.00
2013-1-21,84,59,43,-100,-100,-100,0,0,100,0.00,40.00,0,-999,0,0.00
2013-1-22,83,57,41,-100,-100,-100,0,0,100,0.00,40.00,0,-999,0,0.00
2013-1-23,80,64,50,-100,-100,-100,0,0,100,0.00,40.00,0,-999,0,0.00
2013-1-24,87,70,62,-100,-100,-100,0,0,100,0.00,40.00,0,-999,0,0.00
2013-1-25,90,74,62,-100,-100,-100,0,0,100,0.00,40.00,0,-999,0,0.00
2013-1-26,86,70,61,-100,-100,-100,0,0,100,0.00,40.00,0,-999,0,0.00
2013-1-27,83,69,60,-100,-100,-100,0,0,100,0.00,40.00,0,-999,0,0.00
2013-1-28,83,77,73,-100,-100,-100,0,0,100,0.00,40.00,0,-999,0,0.00
2013-1-29,87,77,70,-100,-100,-100,0,0,100,0.00,40.00,0,-999,0,0.00
2013-1-30,76,60,45,-100,-100,-100,0,0,100,0.00,40.00,0,-999,0,0.00
2013-1-31,79,53,28,-100,-100,-100,0,0,100,0.00,40.00,0,-999,0,0.00
2013-2-1,82,55,41,-100,-100,-100,0,0,100,0.00,40.00,0,-999,0,0.00
2013-2-2,92,57,40,-100,-100,-100,0,0,100,0.00,40.00,0,-999,0,0.00
2013-2-3,86,60,50,-100,-100,-100,0,0,100,0.00,40.00,0,-999,0,0.00
2013-2-4,85,66,57,-100,-100,-100,0,0,100,0.00,40.00,0,-999,0,0.00
2013-2-5,94,72,64,-100,-100,-100,0,0,100,0.00,40.00,0,-999,0,0.00
2013-2-6,77,68,65,-100,-100,-100,0,0,100,0.00,40.00,0,-999,0,0.00
2013-2-7,83,67,58,-100,-100,-100,0,0,100,0.00,40.00,0,-999,0,0.00
2013-2-8,85,65,51,-100,-100,-100,0,0,100,0.00,40.00,0,-999,0,0.00
2013-2-9,71,61,54,-100,-100,-100,0,0,100,0.00,40.00,0,-999,0,0.00
2013-2-10,74,71,63,-100,-100,-100,0,0,100,0.00,40.00,0,-999,0,0.00
2013-2-11,64,56,51,-100,-100,-100,0,0,100,0.00,40.00,0,-999,0,0.00
2013-2-12,82,61,54,-100,-100,-100,0,0,100,0.00,40.00,0,-999,0,0.00
2013-2-13,78,52,40,-100,-100,-100,0,0,100,0.00,40.00,0,-999,0,0.00
2013-2-14,83,48,31,-100,-100,-100,0,0,100,0.00,40.00,0,-999,0,0.00
2013-2-15,80,54,36,-100,-100,-100,0,0,100,0.00,40.00,0,-999,0,0.00
2013-2-16,77,49,32,-100,-100,-100,0,0,100,0.00,40.00,0,-999,0,0.00
2013-2-17,76,58,30,-100,-100,-100,0,0,100,0.00,40.00,0,-999,0,0.00
2013-2-18,88,72,63,-100,-100,-100,0,0,100,0.00,40.00,0,-999,0,0.00
2013-2-19,80,58,43,-100,-100,-100,0,0,100,0.00,40.00,0,-999,0,0.00
2013-2-20,71,62,55,-100,-100,-100,0,0,100,0.00,40.00,0,-999,0,0.00
2013-2-21,87,76,63,-100,-100,-100,0,0,100,0.00,40.00,0,-999,0,0.00
2013-2-22,76,56,50,-100,-100,-100,0,0,100,0.00,40.00,0,-999,0,0.00
2013-2-23,82,53,43,-100,-100,-100,0,0,100,0.00,40.00,0,-999,0,0.00
2013-2-24,80,59,35,-100,-100,-100,0,0,100,0.00,40.00,0,-999,0,0.00
2013-2-25,75,65,49,-100,-100,-100,0,0,100,0.00,40.00,0,-999,0,0.00
2013-2-26,77,49,37,-100,-100,-100,0,0,100,0.00,40.00,0,-999,0,0.00
2013-2-27,78,54,42,-100,-100,-100,0,0,100,0.00,40.00,0,-999,0,0.00
2013-2-28,76,53,40,-100,-100,-100,0,0,100,0.00,40.00,0,-999,0,0.00
2013-3-1,83,58,29,-100,-100,-100,0,0,100,0.00,40.00,0,-999,0,0.00
2013-3-2,77,51,35,-100,-100,-100,0,0,100,0.00,40.00,0,-999,0,0.00
2013-3-3,83,55,27,-100,-100,-100,0,0,100,0.00,40.00,0,-999,0,0.00
2013-3-4,94,68,53,-100,-100,-100,0,0,100,0.00,40.00,0,-999,0,0.00
2013-3-5,84,65,50,-100,-100,-100,0,0,100,0.00,40.00,0,-999,0,0.00
2013-3-6,82,55,31,-100,-100,-100,0,0,100,0.00,40.00,0,-999,0,0.00
2013-3-7,83,61,38,-100,-100,-100,0,0,100,0.00,40.00,0,-999,0,0.00
2013-3-8,75,66,56,-100,-100,-100,0,0,100,0.00,40.00,0,-999,0,0.00
2013-3-9,80,72,65,-100,-100,-100,0,0,100,0.00,40.00,0,-999,0,0.00
2013-3-10,86,70,58,-100,-100,-100,0,0,100,0.00,40.00,0,-999,0,0.00
2013-3-11,83,63,43,-100,-100,-100,0,0,100,0.00,40.00,0,-999,0,0.00
2013-3-12,92,61,32,-100,-100,-100,0,0,100,0.00,40.00,0,-999,0,0.00
2013-3-13,90,64,43,-100,-100,-100,0,0,100,0.00,40.00,0,-999,0,0.00
2013-3-14,91,60,42,-100,-100,-100,0,0,100,0.00,40.00,0,-999,0,0.00
2013-3-15,90,65,48,-100,-100,-100,0,0,100,0.00,40.00,0,-999,0,0.00
2013-3-16,92,73,57,-100,-100,-100,0,0,100,0.00,40.00,0,-999,0,0.00
2013-3-17,94,78,68,-100,-100,-100,0,0,100,0.00,40.00,0,-999,0,0.00
2013-3-18,103,83,71,-100,-100,-100,0,0,100,0.00,40.00,0,-999,0,0.00
2013-3-19,95,73,57,-100,-100,-100,0,0,100,0.00,40.00,0,-999,0,0.00
2013-3-20,91,72,59,-100,-100,-100,0,0,100,0.00,40.00,0,-999,0,0.00
2013-3-21,79,67,53,-100,-100,-100,0,0,100,0.00,40.00,0,-999,0,0.00
2013-3-22,94,78,72,-100,-100,-100,0,0,100,0.00,40.00,0,-999,0,0.00
2013-3-23,97,73,60,-100,-100,-100,0,0,100,0.00,40.00,0,-999,0,0.00
2013-3-24,82,68,57,-100,-100,-100,0,0,100,0.00,40.00,0,-999,0,0.00
2013-3-25,81,54,34,-100,-100,-100,0,0,100,0.00,40.00,0,-999,0,0.00
2013-3-26,83,56,32,-100,-100,-100,0,0,100,0.00,40.00,0,-999,0,0.00
2013-3-27,77,58,35,-100,-100,-100,0,0,100,0.00,40.00,0,-999,0,0.00
2013-3-28,80,70,60,-100,-100,-100,0,0,100,0.00,40.00,0,-999,0,0.00
2013-3-29,87,71,59,-100,-100,-100,0,0,100,0.00,40.00,0,-999,0,0.00
2013-3-30,94,79,68,-100,-100,-100,0,0,100,0.00,40.00,0,-999,0,0.00
2013-3-31,99,82,73,-100,-100,-100,0,0,100,0.00,40.00,0,-999,0,0.00
2013-4-1,96,81,72,-100,-100,-100,0,0,100,0.00,40.00,0,-999,0,0.00
2013-4-2,87,72,67,-100,-100,-100,0,0,100,0.00,40.00,0,-999,0,0.00
2013-4-3,67,60,53,-100,-100,-100,0,0,100,0.00,40.00,0,-999,0,0.00
2013-4-4,67,56,51,-100,-100,-100,0,0,100,0.00,40.00,0,-999,0,0.00
2013-4-5,91,64,40,-100,-100,-100,0,0,100,0.00,40.00,0,-999,0,0.00
2013-4-6,87,74,55,-100,-100,-100,0,0,100,0.00,40.00,0,-999,0,0.00
2013-4-7,90,74,63,-100,-100,-100,0,0,100,0.00,40.00,0,-999,0,0.00
2013-4-8,86,77,71,-100,-100,-100,0,0,100,0.00,40.00,0,-999,0,0.00
2013-4-9,89,79,73,-100,-100,-100,0,0,100,0.00,40.00,0,-999,0,0.00
2013-4-10,80,66,54,-100,-100,-100,0,0,100,0.00,40.00,0,-999,0,0.00
2013-4-11,89,59,43,-100,-100,-100,0,0,100,0.00,40.00,0,-999,0,0.00
2013-4-12,97,68,45,-100,-100,-100,0,0,100,0.00,40.00,0,-999,0,0.00
2013-4-13,91,70,53,-100,-100,-100,0,0,100,0.00,40.00,0,-999,0,0.00
2013-4-14,99,72,60,-100,-100,-100,0,0,100,0.00,40.00,0,-999,0,0.00
2013-4-15,93,81,76,-100,-100,-100,0,0,100,0.00,40.00,0,-999,0,0.00
2013-4-16,97,85,77,-100,-100,-100,0,0,100,0.00,40.00,0,-999,0,0.00
2013-4-17,91,82,78,-100,-100,-100,0,0,100,0.00,40.00,0,-999,0,0.00
2013-4-18,79,73,59,-100,-100,-100,0,0,100,0.00,40.00,0,-999,0,0.00
2013-4-19,90,62,45,-100,-100,-100,0,0,100,0.00,40.00,0,-999,0,0.00
2013-4-20,90,65,39,-100,-100,-100,0,0,100,0.00,40.00,0,-999,0,0.00
2013-4-21,92,72,52,-100,-100,-100,0,0,100,0.00,40.00,0,-999,0,0.00
2013-4-22,94,74,57,-100,-100,-100,0,0,100,0.00,40.00,0,-999,0,0.00
2013-4-23,92,80,62,-100,-100,-100,0,0,100,0.00,40.00,0,-999,0,0.00
2013-4-24,88,66,47,-100,-100,-100,0,0,100,0.00,40.00,0,-999,0,0.00
2013-4-25,85,71,63,-100,-100,-100,0,0,100,0.00,40.00,0,-999,0,0.00
2013-4-26,92,79,69,-100,-100,-100,0,0,100,0.00,40.00,0,-999,0,0.00
2013-4-27,89,78,72,-100,-100,-100,0,0,100,0.00,40.00,0,-999,0,0.00
2013-4-28,92,81,65,-100,-100,-100,0,0,100,0.00,40.00,0,-999,0,0.00
2013-4-29,94,79,73,-100,-100,-100,0,0,100,0.00,40.00,0,-999,0,0.00
2013-4-30,102,85,69,-100,-100,-100,0,0,100,0.00,40.00,0,-999,0,0.00
2013-5-1,100,83,76,-100,-100,-100,0,0,100,0.00,40.00,0,-999,0,0.00
2013-5-2,81,71,52,-100,-100,-100,0,0,100,0.00,40.00,0,-999,0,0.00
2013-5-3,91,62,44,-100,-100,-100,0,0,100,0.00,40.00,0,-999,0,0.00
2013-5-4,94,73,42,-100,-100,-100,0,0,100,0.00,40.00,0,-999,0,0.00
2013-5-5,99,67,52,-100,-100,-100,0,0,100,0.00,40.00,0,-999,0,0.00
2013-5-6,91,70,52,-100,-100,-100,0,0,100,0.00,40.00,0,-999,0,0.00
2013-5-7,100,78,57,-100,-100,-100,0,0,100,0.00,40.00,0,-999,0,0.00
2013-5-8,98,79,65,-100,-100,-100,0,0,100,0.00,40.00,0,-999,0,0.00
2013-5-9,90,81,75,-100,-100,-100,0,0,100,0.00,40.00,0,-999,0,0.00
2013-5-10,91,80,70,-100,-100,-100,0,0,100,0.00,40.00,0,-999,0,0.00
2013-5-11,105,88,70,-100,-100,-100,0,0,100,0.00,40.00,0,-999,0,0.00
2013-5-12,102,80,65,-100,-100,-100,0,0,100,0.00,40.00,0,-999,0,0.00
2013-5-13,101,79,61,-100,-100,-100,0,0,100,0.00,40.00,0,-999,0,0.00
2013-5-14,94,79,67,-100,-100,-100,0,0,100,0.00,40.00,0,-999,0,0.00
2013-5-15,91,79,74,-100,-100,-100,0,0,100,0.00,40.00,0,-999,0,0.00
2013-5-16,95,81,76,-100,-100,-100,0,0,100,0.00,40.00,0,-999,0,0.00
2013-5-17,101,85,79,-100,-100,-100,0,0,100,0.00,40.00,0,-999,0,0.00
2013-5-18,101,87,80,-100,-100,-100,0,0,100,0.00,40.00,0,-999,0,0.00
2013-5-19,102,86,79,-100,-100,-100,0,0,100,0.00,40.00,0,-999,0,0.00
2013-5-20,102,87,81,-100,-100,-100,0,0,100,0.00,40.00,0,-999,0,0.00
2013-5-21,101,89,82,-100,-100,-100,0,0,100,0.00,40.00,0,-999,0,0.00
2013-5-22,105,90,76,-100,-100,-100,0,0,100,0.00,40.00,0,-999,0,0.00
2013-5-23,103,90,82,-100,-100,-100,0,0,100,0.00,40.00,0,-999,0,0.00
2013-5-24,98,88,82,-100,-100,-100,0,0,100,0.00,40.00,0,-999,0,0.00
2013-5-25,87,84,82,-100,-100,-100,0,0,100,0.00,40.00,0,-999,0,0.00
2013-5-26,98,88,77,-100,-100,-100,0,0,100,0.00,40.00,0,-999,0,0.00
2013-11-25,37,37,36,-100,-100,-100,0,0,100,0.00,40.00,0,-999,0,0.00
2013-11-26,47,40,34,-100,-100,-100,0,0,100,0.00,40.00,0,-999,0,0.00
2013-11-27,49,38,29,-100,-100,-100,0,0,100,0.00,40.00,0,-999,0,0.00
2013-11-28,55,36,25,-100,-100,-100,0,0,100,0.00,40.00,0,-999,0,0.00
2013-11-29,58,43,30,-100,-100,-100,0,0,100,0.00,40.00,0,-999,0,0.00
2013-11-30,76,52,36,-100,-100,-100,0,0,100,0.00,40.00,0,-999,0,0.00
2013-12-1,79,66,55,-100,-100,-100,0,0,100,0.00,40.00,0,-999,0,0.00
2013-12-2,74,65,59,-100,-100,-100,0,0,100,0.00,40.00,0,-999,0,0.00
2013-12-3,87,64,53,-100,-100,-100,0,0,100,0.00,40.00,0,-999,0,0.00
2013-12-4,83,74,68,-100,-100,-100,0,0,100,0.00,40.00,0,-999,0,0.00
2013-12-5,76,55,35,-100,-100,-100,0,0,100,0.00,40.00,0,-999,0,0.00
2013-12-6,40,33,27,-100,-100,-100,0,0,100,0.00,40.00,0,-999,0,0.00
2013-12-7,30,26,25,-100,-100,-100,0,0,100,0.00,40.00,0,-999,0,0.00
2013-12-8,46,35,25,-100,-100,-100,0,0,100,0.00,40.00,0,-999,0,0.00
2013-12-9,43,40,34,-100,-100,-100,0,0,100,0.00,40.00,0,-999,0,0.00
2013-12-10,46,33,27,-100,-100,-100,0,0,100,0.00,40.00,0,-999,0,0.00
2013-12-11,59,44,28,-100,-100,-100,0,0,100,0.00,40.00,0,-999,0,0.00
2013-12-12,48,38,31,-100,-100,-100,0,0,100,0.00,40.00,0,-999,0,0.00
2013-12-13,58,49,40,-100,-100,-100,0,0,100,0.00,40.00,0,-999,0,0.00
2013-12-14,58,48,36,-100,-100,-100,0,0,100,0.00,40.00,0,-999,0,0.00
2013-12-15,49,34,25,-100,-100,-100,0,0,100,0.00,40.00,0,-999,0,0.00
2013-12-16,68,39,22,-100,-100,-100,0,0,100,0.00,40.00,0,-999,0,0.00
2013-12-17,65,46,26,-100,-100,-100,0,0,100,0.00,40.00,0,-999,0,0.00
2013-12-18,71,44,32,-100,-100,-100,0,0,100,0.00,40.00,0,-999,0,0.00
2013-12-19,82,71,56,-100,-100,-100,0,0,100,0.00,40.00,0,-999,0,0.00
2013-12-20,80,75,73,-100,-100,-100,0,0,100,0.00,40.00,0,-999,0,0.00
2013-12-21,78,70,57,-100,-100,-100,0,0,100,0.00,40.00,0,-999,0,0.00
2013-12-22,57,52,45,-100,-100,-100,0,0,100,0.00,40.00,0,-999,0,0.00
2013-12-23,47,36,27,-100,-100,-100,0,0,100,0.00,40.00,0,-999,0,0.00
2013-12-24,57,35,21,-100,-100,-100,0,0,100,0.00,40.00,0,-999,0,0.00
2013-12-25,59,50,34,-100,-100,-100,0,0,100,0.00,40.00,0,-999,0,0.00
2013-12-26,58,50,43,-100,-100,-100,0,0,100,0.00,40.00,0,-999,0,0.00
2013-12-27,65,51,46,-100,-100,-100,0,0,100,0.00,40.00,0,-999,0,0.00
2013-12-28,58,47,39,-100,-100,-100,0,0,100,0.00,40.00,0,-999,0,0.00
2013-12-29,70,44,32,-100,-100,-100,0,0,100,0.00,40.00,0,-999,0,0.00
2013-12-30,43,36,32,-100,-100,-100,0,0,100,0.00,40.00,0,-999,0,0.00
2013-12-31,51,40,33,-100,-100,-100,0,0,100,0.00,40.00,0,-999,0,0.00
2014-1-1,65,53,39,-100,-100,-100,0,0,100,0.00,40.00,0,-999,0,0.00
2014-1-2,59,43,32,-100,-100,-100,0,0,100,0.00,40.00,0,-999,0,0.00